createdAt,value
2023-04-12T00:00:29.251Z,0.00
2023-04-12T00:01:28.614Z,0.00
2023-04-12T00:02:28.655Z,0.00
2023-04-12T00:03:28.638Z,0.00
2023-04-12T00:04:28.721Z,0.00
2023-04-12T00:05:28.389Z,0.00
2023-04-12T00:06:29.257Z,0.00
2023-04-12T00:07:28.274Z,0.00
2023-04-12T00:08:28.219Z,0.00
2023-04-12T00:09:28.160Z,0.00
2023-04-12T00:10:28.103Z,0.00
2023-04-12T00:11:28.053Z,0.00
2023-04-12T00:12:27.991Z,0.00
2023-04-12T00:13:27.943Z,0.00
2023-04-12T00:14:27.897Z,0.00
2023-04-12T00:15:27.833Z,0.00
2023-04-12T00:16:28.822Z,0.00
2023-04-12T00:17:27.764Z,0.00
2023-04-12T00:18:27.655Z,0.00
2023-04-12T00:19:27.717Z,0.00
2023-04-12T00:20:27.542Z,0.00
2023-04-12T00:21:27.490Z,0.00
2023-04-12T00:22:27.426Z,0.00
2023-04-12T00:23:27.381Z,0.00
2023-04-12T00:24:27.322Z,0.00
2023-04-12T00:25:27.259Z,0.00
2023-04-12T00:26:27.203Z,0.00
2023-04-12T00:27:27.148Z,0.00
2023-04-12T00:28:27.088Z,0.00
2023-04-12T00:29:27.036Z,0.00
2023-04-12T00:30:26.982Z,0.00
2023-04-12T00:31:26.978Z,0.00
2023-04-12T00:32:26.920Z,0.00
2023-04-12T00:33:26.810Z,0.00
2023-04-12T00:34:26.753Z,0.00
2023-04-12T00:35:26.702Z,0.00
2023-04-12T00:36:26.640Z,0.00
2023-04-12T00:37:26.580Z,0.00
2023-04-12T00:38:26.530Z,0.00
2023-04-12T00:39:26.469Z,0.00
2023-04-12T00:40:26.413Z,0.00
2023-04-12T00:41:26.352Z,0.00
2023-04-12T00:42:26.299Z,0.00
2023-04-12T00:43:26.247Z,0.00
2023-04-12T00:44:26.309Z,0.00
2023-04-12T00:45:26.126Z,0.00
2023-04-12T00:46:26.114Z,0.00
2023-04-12T00:47:26.047Z,0.00
2023-04-12T00:48:25.961Z,0.00
2023-04-12T00:49:25.904Z,0.00
2023-04-12T00:50:25.852Z,0.00
2023-04-12T00:51:25.798Z,0.00
2023-04-12T00:52:25.738Z,0.00
2023-04-12T00:53:25.717Z,0.00
2023-04-12T00:54:25.619Z,0.00
2023-04-12T00:55:25.572Z,0.00
2023-04-12T00:56:25.507Z,0.00
2023-04-12T00:57:25.459Z,0.00
2023-04-12T00:58:25.398Z,0.00
2023-04-12T00:59:25.339Z,0.00
2023-04-12T01:00:25.284Z,0.00
2023-04-12T01:01:25.232Z,0.00
2023-04-12T01:02:25.477Z,0.00
2023-04-12T01:03:25.201Z,0.00
2023-04-12T01:04:25.055Z,0.00
2023-04-12T01:05:24.998Z,0.00
2023-04-12T01:06:24.941Z,0.00
2023-04-12T01:07:24.888Z,0.00
2023-04-12T01:08:24.834Z,0.00
2023-04-12T01:09:24.804Z,0.00
2023-04-12T01:10:24.712Z,0.00
2023-04-12T01:11:24.658Z,0.00
2023-04-12T01:12:24.596Z,0.00
2023-04-12T01:13:24.547Z,0.00
2023-04-12T01:14:24.485Z,0.00
2023-04-12T01:15:24.446Z,0.00
2023-04-12T01:16:24.427Z,0.00
2023-04-12T01:17:24.366Z,0.00
2023-04-12T01:18:24.273Z,0.00
2023-04-12T01:19:24.199Z,0.00
2023-04-12T01:20:24.148Z,0.00
2023-04-12T01:21:24.087Z,0.00
2023-04-12T01:22:24.053Z,0.00
2023-04-12T01:23:24.013Z,0.00
2023-04-12T01:24:23.931Z,0.00
2023-04-12T01:25:23.879Z,0.00
2023-04-12T01:26:23.839Z,0.00
2023-04-12T01:27:23.750Z,0.00
2023-04-12T01:28:23.700Z,0.00
2023-04-12T01:29:23.646Z,0.00
2023-04-12T01:30:23.593Z,0.00
2023-04-12T01:31:23.553Z,0.00
2023-04-12T01:32:23.473Z,0.00
2023-04-12T01:33:23.411Z,0.00
2023-04-12T01:34:23.356Z,0.00
2023-04-12T01:35:23.359Z,0.00
2023-04-12T01:36:23.256Z,0.00
2023-04-12T01:37:37.780Z,0.00
2023-04-12T01:38:23.125Z,0.00
2023-04-12T01:39:23.073Z,0.00
2023-04-12T01:40:23.009Z,0.00
2023-04-12T01:41:22.957Z,0.00
2023-04-12T01:42:22.902Z,0.00
2023-04-12T01:43:22.848Z,0.00
2023-04-12T01:44:22.785Z,0.00
2023-04-12T01:45:22.778Z,0.00
2023-04-12T01:46:22.676Z,0.00
2023-04-12T01:47:22.687Z,0.00
2023-04-12T01:48:22.559Z,0.00
2023-04-12T01:49:22.501Z,0.00
2023-04-12T01:50:22.462Z,0.00
2023-04-12T01:51:22.412Z,0.00
2023-04-12T01:52:22.338Z,0.00
2023-04-12T01:53:22.275Z,0.00
2023-04-12T01:54:22.220Z,0.00
2023-04-12T01:55:22.205Z,0.00
2023-04-12T01:56:22.112Z,0.00
2023-04-12T01:57:22.051Z,0.00
2023-04-12T01:58:22.029Z,0.00
2023-04-12T01:59:21.934Z,0.00
2023-04-12T02:00:21.885Z,0.00
2023-04-12T02:01:21.857Z,0.00
2023-04-12T02:02:21.843Z,0.00
2023-04-12T02:03:22.012Z,0.00
2023-04-12T02:04:21.652Z,0.00
2023-04-12T02:05:21.602Z,0.00
2023-04-12T02:06:21.554Z,0.00
2023-04-12T02:07:21.490Z,0.00
2023-04-12T02:08:21.427Z,0.00
2023-04-12T02:09:21.374Z,0.00
2023-04-12T02:10:21.314Z,0.00
2023-04-12T02:11:21.264Z,0.00
2023-04-12T02:12:21.202Z,0.00
2023-04-12T02:13:21.144Z,0.00
2023-04-12T02:14:21.085Z,0.00
2023-04-12T02:15:21.032Z,0.00
2023-04-12T02:16:21.002Z,0.00
2023-04-12T02:17:20.913Z,0.00
2023-04-12T02:18:20.858Z,0.00
2023-04-12T02:19:20.811Z,0.00
2023-04-12T02:20:20.822Z,0.00
2023-04-12T02:21:20.809Z,0.00
2023-04-12T02:22:20.650Z,0.00
2023-04-12T02:23:20.586Z,0.00
2023-04-12T02:24:20.516Z,0.00
2023-04-12T02:25:20.465Z,0.00
2023-04-12T02:26:20.404Z,0.00
2023-04-12T02:27:20.359Z,0.00
2023-04-12T02:28:20.295Z,0.00
2023-04-12T02:29:20.243Z,0.00
2023-04-12T02:30:20.176Z,0.00
2023-04-12T02:31:20.251Z,0.00
2023-04-12T02:32:20.068Z,0.00
2023-04-12T02:33:20.009Z,0.00
2023-04-12T02:34:19.952Z,0.00
2023-04-12T02:35:19.980Z,0.00
2023-04-12T02:36:19.835Z,0.00
2023-04-12T02:37:19.786Z,0.00
2023-04-12T02:38:19.731Z,0.00
2023-04-12T02:39:19.676Z,0.00
2023-04-12T02:40:19.619Z,0.00
2023-04-12T02:41:19.551Z,0.00
2023-04-12T02:42:19.495Z,0.00
2023-04-12T02:43:19.450Z,0.00
2023-04-12T02:44:19.390Z,0.00
2023-04-12T02:45:19.323Z,0.00
2023-04-12T02:46:19.308Z,0.00
2023-04-12T02:47:19.226Z,0.00
2023-04-12T02:48:19.154Z,0.00
2023-04-12T02:49:19.808Z,0.00
2023-04-12T02:50:19.049Z,0.00
2023-04-12T02:51:18.990Z,0.00
2023-04-12T02:52:18.928Z,0.00
2023-04-12T02:53:18.889Z,0.00
2023-04-12T02:54:18.828Z,0.00
2023-04-12T02:55:18.764Z,0.00
2023-04-12T02:56:18.707Z,0.00
2023-04-12T02:57:18.648Z,0.00
2023-04-12T02:58:18.588Z,0.00
2023-04-12T02:59:18.534Z,0.00
2023-04-12T03:00:18.489Z,0.00
2023-04-12T03:01:18.464Z,0.00
2023-04-12T03:02:18.420Z,0.00
2023-04-12T03:03:18.426Z,0.00
2023-04-12T03:04:18.354Z,0.00
2023-04-12T03:05:18.194Z,0.00
2023-04-12T03:06:18.809Z,0.00
2023-04-12T03:07:18.072Z,0.00
2023-04-12T03:08:18.023Z,0.00
2023-04-12T03:09:17.964Z,0.00
2023-04-12T03:10:17.909Z,0.00
2023-04-12T03:11:17.849Z,0.00
2023-04-12T03:12:17.792Z,0.00
2023-04-12T03:13:17.737Z,0.00
2023-04-12T03:14:17.683Z,0.00
2023-04-12T03:15:17.635Z,0.00
2023-04-12T03:16:17.603Z,0.00
2023-04-12T03:17:17.508Z,0.00
2023-04-12T03:18:17.476Z,0.00
2023-04-12T03:19:17.397Z,0.00
2023-04-12T03:20:17.381Z,0.00
2023-04-12T03:21:17.288Z,0.00
2023-04-12T03:22:17.228Z,0.00
2023-04-12T03:23:17.171Z,0.00
2023-04-12T03:24:17.118Z,0.00
2023-04-12T03:25:17.055Z,0.00
2023-04-12T03:26:17.011Z,0.00
2023-04-12T03:27:16.937Z,0.00
2023-04-12T03:28:16.887Z,0.00
2023-04-12T03:29:16.961Z,0.00
2023-04-12T03:30:16.772Z,0.00
2023-04-12T03:31:16.760Z,0.00
2023-04-12T03:32:16.651Z,0.00
2023-04-12T03:33:16.600Z,0.00
2023-04-12T03:34:16.548Z,0.00
2023-04-12T03:35:16.533Z,0.00
2023-04-12T03:36:16.434Z,0.00
2023-04-12T03:37:16.384Z,0.00
2023-04-12T03:38:16.338Z,0.00
2023-04-12T03:39:16.258Z,0.00
2023-04-12T03:40:16.203Z,0.00
2023-04-12T03:41:16.146Z,0.00
2023-04-12T03:42:31.683Z,0.00
2023-04-12T03:43:16.030Z,0.00
2023-04-12T03:44:15.985Z,0.00
2023-04-12T03:45:15.921Z,0.00
2023-04-12T03:46:15.872Z,0.00
2023-04-12T03:47:15.799Z,0.00
2023-04-12T03:48:15.744Z,0.00
2023-04-12T03:49:15.689Z,0.00
2023-04-12T03:50:15.630Z,0.00
2023-04-12T03:51:15.574Z,0.00
2023-04-12T03:52:15.527Z,0.00
2023-04-12T03:53:15.460Z,0.00
2023-04-12T03:54:15.410Z,0.00
2023-04-12T03:55:15.349Z,0.00
2023-04-12T03:56:15.292Z,0.00
2023-04-12T03:57:15.238Z,0.00
2023-04-12T03:58:15.183Z,0.00
2023-04-12T03:59:15.122Z,0.00
2023-04-12T04:00:15.069Z,0.00
2023-04-12T04:01:15.008Z,0.00
2023-04-12T04:02:14.975Z,0.00
2023-04-12T04:03:14.968Z,0.00
2023-04-12T04:04:14.914Z,0.00
2023-04-12T04:05:14.844Z,0.00
2023-04-12T04:06:14.721Z,0.00
2023-04-12T04:07:14.663Z,0.00
2023-04-12T04:08:14.612Z,0.00
2023-04-12T04:09:14.548Z,0.00
2023-04-12T04:10:14.527Z,0.00
2023-04-12T04:11:14.458Z,0.00
2023-04-12T04:12:14.380Z,0.00
2023-04-12T04:13:14.327Z,0.00
2023-04-12T04:14:14.279Z,0.00
2023-04-12T04:15:14.818Z,0.00
2023-04-12T04:16:14.176Z,0.00
2023-04-12T04:17:20.847Z,0.00
2023-04-12T04:18:14.816Z,0.00
2023-04-12T04:19:14.259Z,0.00
2023-04-12T04:20:14.817Z,0.00
2023-04-12T04:21:13.868Z,0.00
2023-04-12T04:22:13.838Z,0.00
2023-04-12T04:23:13.800Z,0.00
2023-04-12T04:24:13.700Z,0.00
2023-04-12T04:25:13.656Z,0.00
2023-04-12T04:26:13.619Z,0.00
2023-04-12T04:27:13.531Z,0.00
2023-04-12T04:28:13.481Z,0.00
2023-04-12T04:29:13.414Z,0.00
2023-04-12T04:30:13.366Z,0.00
2023-04-12T04:31:13.350Z,0.00
2023-04-12T04:32:13.302Z,0.00
2023-04-12T04:33:13.287Z,0.00
2023-04-12T04:34:13.143Z,0.00
2023-04-12T04:35:13.083Z,0.00
2023-04-12T04:36:13.023Z,0.00
2023-04-12T04:37:12.975Z,0.00
2023-04-12T04:38:12.915Z,0.00
2023-04-12T04:39:12.849Z,0.00
2023-04-12T04:40:12.790Z,0.00
2023-04-12T04:41:12.750Z,0.00
2023-04-12T04:42:12.684Z,0.00
2023-04-12T04:43:12.623Z,0.00
2023-04-12T04:44:12.568Z,0.00
2023-04-12T04:45:12.511Z,0.00
2023-04-12T04:46:12.635Z,0.00
2023-04-12T04:47:12.396Z,0.00
2023-04-12T04:48:12.345Z,0.00
2023-04-12T04:49:12.283Z,0.00
2023-04-12T04:50:12.226Z,0.00
2023-04-12T04:51:12.261Z,0.00
2023-04-12T04:52:12.115Z,0.00
2023-04-12T04:53:12.056Z,0.00
2023-04-12T04:54:12.005Z,0.00
2023-04-12T04:55:11.942Z,0.00
2023-04-12T04:56:11.892Z,0.00
2023-04-12T04:57:11.834Z,0.00
2023-04-12T04:58:11.774Z,0.00
2023-04-12T04:59:11.709Z,0.00
2023-04-12T05:00:11.708Z,0.00
2023-04-12T05:01:11.630Z,0.00
2023-04-12T05:02:11.636Z,0.00
2023-04-12T05:03:11.542Z,0.00
2023-04-12T05:04:11.510Z,0.00
2023-04-12T05:05:11.368Z,4.00
2023-04-12T05:06:11.315Z,4.00
2023-04-12T05:07:11.344Z,4.00
2023-04-12T05:08:11.197Z,4.00
2023-04-12T05:09:11.140Z,4.00
2023-04-12T05:10:11.108Z,4.00
2023-04-12T05:11:11.031Z,4.00
2023-04-12T05:12:10.975Z,4.00
2023-04-12T05:13:10.913Z,0.00
2023-04-12T05:14:12.621Z,0.00
2023-04-12T05:15:12.231Z,4.00
2023-04-12T05:16:10.764Z,4.00
2023-04-12T05:17:10.689Z,4.00
2023-04-12T05:18:10.637Z,4.00
2023-04-12T05:19:10.573Z,4.00
2023-04-12T05:20:10.517Z,4.00
2023-04-12T05:21:10.455Z,4.00
2023-04-12T05:22:10.398Z,4.00
2023-04-12T05:23:10.342Z,0.00
2023-04-12T05:24:10.294Z,4.00
2023-04-12T05:25:10.244Z,4.00
2023-04-12T05:26:10.171Z,4.00
2023-04-12T05:27:10.116Z,4.00
2023-04-12T05:28:10.060Z,4.00
2023-04-12T05:29:10.009Z,4.00
2023-04-12T05:30:09.940Z,4.00
2023-04-12T05:31:09.918Z,4.00
2023-04-12T05:32:09.842Z,4.00
2023-04-12T05:33:09.783Z,4.00
2023-04-12T05:34:09.728Z,4.00
2023-04-12T05:35:09.680Z,4.00
2023-04-12T05:36:09.601Z,4.00
2023-04-12T05:37:09.548Z,4.00
2023-04-12T05:38:09.493Z,4.00
2023-04-12T05:39:09.433Z,4.00
2023-04-12T05:40:09.376Z,4.00
2023-04-12T05:41:09.329Z,4.00
2023-04-12T05:42:09.266Z,4.00
2023-04-12T05:43:09.207Z,4.00
2023-04-12T05:44:09.154Z,4.00
2023-04-12T05:45:09.110Z,4.00
2023-04-12T05:46:09.053Z,8.00
2023-04-12T05:47:08.982Z,8.00
2023-04-12T05:48:08.978Z,8.00
2023-04-12T05:49:08.866Z,8.00
2023-04-12T05:50:08.823Z,8.00
2023-04-12T05:51:08.750Z,8.00
2023-04-12T05:52:08.693Z,8.00
2023-04-12T05:53:08.663Z,8.00
2023-04-12T05:54:08.583Z,8.00
2023-04-12T05:55:08.532Z,4.00
2023-04-12T05:56:08.476Z,4.00
2023-04-12T05:57:08.417Z,8.00
2023-04-12T05:58:08.357Z,8.00
2023-04-12T05:59:08.304Z,8.00
2023-04-12T06:00:08.248Z,8.00
2023-04-12T06:01:08.194Z,8.00
2023-04-12T06:02:08.217Z,12.00
2023-04-12T06:03:08.155Z,8.00
2023-04-12T06:04:08.171Z,8.00
2023-04-12T06:05:08.117Z,8.00
2023-04-12T06:06:08.035Z,8.00
2023-04-12T06:07:07.841Z,8.00
2023-04-12T06:08:07.883Z,8.00
2023-04-12T06:09:07.729Z,12.00
2023-04-12T06:10:07.684Z,12.00
2023-04-12T06:11:07.620Z,12.00
2023-04-12T06:12:07.561Z,12.00
2023-04-12T06:13:07.500Z,12.00
2023-04-12T06:14:08.033Z,12.00
2023-04-12T06:15:07.413Z,12.00
2023-04-12T06:16:07.340Z,12.00
2023-04-12T06:17:07.279Z,12.00
2023-04-12T06:18:07.242Z,12.00
2023-04-12T06:19:07.162Z,12.00
2023-04-12T06:20:07.107Z,16.00
2023-04-12T06:21:07.049Z,12.00
2023-04-12T06:22:07.006Z,12.00
2023-04-12T06:23:06.934Z,12.00
2023-04-12T06:24:06.877Z,8.00
2023-04-12T06:25:06.825Z,12.00
2023-04-12T06:26:06.768Z,8.00
2023-04-12T06:27:06.707Z,12.00
2023-04-12T06:28:06.660Z,12.00
2023-04-12T06:29:06.604Z,12.00
2023-04-12T06:30:06.532Z,12.00
2023-04-12T06:31:06.475Z,12.00
2023-04-12T06:32:06.437Z,12.00
2023-04-12T06:33:06.378Z,12.00
2023-04-12T06:34:06.309Z,12.00
2023-04-12T06:35:06.240Z,12.00
2023-04-12T06:36:06.222Z,16.00
2023-04-12T06:37:06.136Z,16.00
2023-04-12T06:38:06.117Z,16.00
2023-04-12T06:39:06.015Z,12.00
2023-04-12T06:40:05.961Z,12.00
2023-04-12T06:41:05.909Z,12.00
2023-04-12T06:42:08.358Z,12.00
2023-04-12T06:43:05.792Z,16.00
2023-04-12T06:44:06.365Z,16.00
2023-04-12T06:45:05.676Z,16.00
2023-04-12T06:46:05.637Z,16.00
2023-04-12T06:47:05.745Z,16.00
2023-04-12T06:48:05.521Z,12.00
2023-04-12T06:49:05.447Z,12.00
2023-04-12T06:50:05.389Z,16.00
2023-04-12T06:51:05.329Z,16.00
2023-04-12T06:52:05.275Z,16.00
2023-04-12T06:53:05.378Z,16.00
2023-04-12T06:54:05.191Z,16.00
2023-04-12T06:55:05.130Z,16.00
2023-04-12T06:56:05.051Z,16.00
2023-04-12T06:57:04.997Z,16.00
2023-04-12T06:58:04.934Z,16.00
2023-04-12T06:59:04.874Z,20.00
2023-04-12T07:00:04.817Z,20.00
2023-04-12T07:01:04.809Z,20.00
2023-04-12T07:02:04.741Z,20.00
2023-04-12T07:03:04.769Z,20.00
2023-04-12T07:04:04.644Z,20.00
2023-04-12T07:05:04.536Z,20.00
2023-04-12T07:06:14.064Z,20.00
2023-04-12T07:07:04.423Z,20.00
2023-04-12T07:08:04.363Z,20.00
2023-04-12T07:09:04.310Z,24.00
2023-04-12T07:10:04.395Z,24.00
2023-04-12T07:11:18.173Z,20.00
2023-04-12T07:12:04.160Z,24.00
2023-04-12T07:13:04.085Z,24.00
2023-04-12T07:14:04.036Z,24.00
2023-04-12T07:15:03.973Z,24.00
2023-04-12T07:16:03.938Z,24.00
2023-04-12T07:17:03.853Z,28.00
2023-04-12T07:18:03.883Z,28.00
2023-04-12T07:19:03.739Z,28.00
2023-04-12T07:20:03.689Z,28.00
2023-04-12T07:21:03.640Z,28.00
2023-04-12T07:22:03.568Z,24.00
2023-04-12T07:23:03.510Z,28.00
2023-04-12T07:24:03.457Z,32.00
2023-04-12T07:25:03.399Z,32.00
2023-04-12T07:26:03.458Z,32.00
2023-04-12T07:27:03.281Z,32.00
2023-04-12T07:28:03.222Z,28.00
2023-04-12T07:29:03.168Z,28.00
2023-04-12T07:30:03.118Z,32.00
2023-04-12T07:31:03.060Z,32.00
2023-04-12T07:32:02.996Z,32.00
2023-04-12T07:33:16.224Z,36.00
2023-04-12T07:34:03.026Z,36.00
2023-04-12T07:35:02.829Z,36.00
2023-04-12T07:36:02.789Z,40.00
2023-04-12T07:37:02.716Z,36.00
2023-04-12T07:38:02.662Z,36.00
2023-04-12T07:39:02.599Z,40.00
2023-04-12T07:40:02.566Z,36.00
2023-04-12T07:41:02.484Z,36.00
2023-04-12T07:42:02.813Z,36.00
2023-04-12T07:43:02.424Z,32.00
2023-04-12T07:44:02.318Z,32.00
2023-04-12T07:45:02.270Z,36.00
2023-04-12T07:46:02.226Z,32.00
2023-04-12T07:47:02.149Z,32.00
2023-04-12T07:48:02.150Z,32.00
2023-04-12T07:49:02.035Z,32.00
2023-04-12T07:50:02.012Z,32.00
2023-04-12T07:51:01.933Z,32.00
2023-04-12T07:52:01.886Z,32.00
2023-04-12T07:53:01.807Z,36.00
2023-04-12T07:54:01.750Z,32.00
2023-04-12T07:55:01.685Z,32.00
2023-04-12T07:56:01.634Z,32.00
2023-04-12T07:57:01.582Z,32.00
2023-04-12T07:58:01.570Z,32.00
2023-04-12T07:59:01.477Z,28.00
2023-04-12T08:00:01.438Z,28.00
2023-04-12T08:01:01.620Z,24.00
2023-04-12T08:02:01.445Z,24.00
2023-04-12T08:03:01.418Z,24.00
2023-04-12T08:04:12.279Z,24.00
2023-04-12T08:05:01.136Z,28.00
2023-04-12T08:06:01.108Z,28.00
2023-04-12T08:07:01.006Z,24.00
2023-04-12T08:08:00.953Z,24.00
2023-04-12T08:09:00.893Z,28.00
2023-04-12T08:10:00.834Z,28.00
2023-04-12T08:11:00.782Z,32.00
2023-04-12T08:12:00.718Z,32.00
2023-04-12T08:13:00.670Z,32.00
2023-04-12T08:14:00.648Z,32.00
2023-04-12T08:15:00.546Z,32.00
2023-04-12T08:16:00.571Z,28.00
2023-04-12T08:17:00.449Z,32.00
2023-04-12T08:18:00.414Z,28.00
2023-04-12T08:19:00.329Z,32.00
2023-04-12T08:20:00.264Z,28.00
2023-04-12T08:21:00.241Z,32.00
2023-04-12T08:22:00.152Z,32.00
2023-04-12T08:23:00.121Z,36.00
2023-04-12T08:24:00.274Z,44.00
2023-04-12T08:24:59.982Z,40.00
2023-04-12T08:25:59.917Z,40.00
2023-04-12T08:26:59.864Z,40.00
2023-04-12T08:27:59.808Z,40.00
2023-04-12T08:28:59.753Z,40.00
2023-04-12T08:29:59.704Z,40.00
2023-04-12T08:30:59.744Z,40.00
2023-04-12T08:31:59.592Z,36.00
2023-04-12T08:32:59.548Z,36.00
2023-04-12T08:33:59.568Z,36.00
2023-04-12T08:34:59.405Z,32.00
2023-04-12T08:35:59.385Z,28.00
2023-04-12T08:36:59.295Z,32.00
2023-04-12T08:37:59.237Z,28.00
2023-04-12T08:38:59.179Z,24.00
2023-04-12T08:39:59.124Z,28.00
2023-04-12T08:40:59.066Z,32.00
2023-04-12T08:41:59.010Z,28.00
2023-04-12T08:42:58.958Z,28.00
2023-04-12T08:43:59.179Z,28.00
2023-04-12T08:44:58.844Z,28.00
2023-04-12T08:45:58.805Z,28.00
2023-04-12T08:46:58.856Z,32.00
2023-04-12T08:47:59.433Z,32.00
2023-04-12T08:48:58.620Z,28.00
2023-04-12T08:49:58.556Z,32.00
2023-04-12T08:50:58.587Z,32.00
2023-04-12T08:51:59.389Z,32.00
2023-04-12T08:52:58.387Z,32.00
2023-04-12T08:53:58.414Z,32.00
2023-04-12T08:54:58.282Z,32.00
2023-04-12T08:55:58.223Z,32.00
2023-04-12T08:57:04.913Z,36.00
2023-04-12T08:57:58.099Z,32.00
2023-04-12T08:58:58.044Z,32.00
2023-04-12T08:59:57.983Z,32.00
2023-04-12T09:00:57.928Z,36.00
2023-04-12T09:01:57.971Z,40.00
2023-04-12T09:02:58.017Z,36.00
2023-04-12T09:03:58.358Z,36.00
2023-04-12T09:04:57.798Z,32.00
2023-04-12T09:05:57.665Z,28.00
2023-04-12T09:06:57.616Z,32.00
2023-04-12T09:07:57.527Z,28.00
2023-04-12T09:08:57.470Z,32.00
2023-04-12T09:09:57.418Z,36.00
2023-04-12T09:10:57.362Z,36.00
2023-04-12T09:11:57.300Z,40.00
2023-04-12T09:12:57.250Z,40.00
2023-04-12T09:13:57.898Z,40.00
2023-04-12T09:14:57.130Z,40.00
2023-04-12T09:15:57.083Z,44.00
2023-04-12T09:16:57.068Z,40.00
2023-04-12T09:17:57.015Z,44.00
2023-04-12T09:18:57.044Z,40.00
2023-04-12T09:19:56.849Z,40.00
2023-04-12T09:20:56.835Z,36.00
2023-04-12T09:21:56.756Z,36.00
2023-04-12T09:22:56.674Z,40.00
2023-04-12T09:23:56.810Z,36.00
2023-04-12T09:24:56.557Z,36.00
2023-04-12T09:25:56.503Z,36.00
2023-04-12T09:26:56.450Z,36.00
2023-04-12T09:27:56.389Z,32.00
2023-04-12T09:28:56.334Z,32.00
2023-04-12T09:29:57.536Z,32.00
2023-04-12T09:30:56.259Z,28.00
2023-04-12T09:31:56.293Z,28.00
2023-04-12T09:32:56.142Z,32.00
2023-04-12T09:33:56.424Z,36.00
2023-04-12T09:34:56.000Z,32.00
2023-04-12T09:35:55.985Z,36.00
2023-04-12T09:36:55.884Z,36.00
2023-04-12T09:37:55.822Z,40.00
2023-04-12T09:38:55.757Z,40.00
2023-04-12T09:39:55.711Z,44.00
2023-04-12T09:40:55.669Z,44.00
2023-04-12T09:41:55.587Z,44.00
2023-04-12T09:42:55.527Z,44.00
2023-04-12T09:43:55.511Z,44.00
2023-04-12T09:44:55.441Z,44.00
2023-04-12T09:45:55.399Z,44.00
2023-04-12T09:46:55.328Z,44.00
2023-04-12T09:47:55.380Z,44.00
2023-04-12T09:48:55.218Z,44.00
2023-04-12T09:49:55.143Z,44.00
2023-04-12T09:50:55.077Z,44.00
2023-04-12T09:51:56.075Z,44.00
2023-04-12T09:52:55.022Z,40.00
2023-04-12T09:53:54.952Z,40.00
2023-04-12T09:54:54.922Z,36.00
2023-04-12T09:55:54.802Z,36.00
2023-04-12T09:56:54.738Z,32.00
2023-04-12T09:57:54.680Z,32.00
2023-04-12T09:58:54.685Z,32.00
2023-04-12T10:00:01.434Z,36.00
2023-04-12T10:00:54.508Z,32.00
2023-04-12T10:01:54.523Z,40.00
2023-04-12T10:03:09.181Z,40.00
2023-04-12T10:03:54.454Z,36.00
2023-04-12T10:04:54.372Z,36.00
2023-04-12T10:05:54.253Z,40.00
2023-04-12T10:06:54.167Z,40.00
2023-04-12T10:07:55.148Z,36.00
2023-04-12T10:08:54.054Z,36.00
2023-04-12T10:09:54.008Z,36.00
2023-04-12T10:10:53.933Z,40.00
2023-04-12T10:11:53.894Z,40.00
2023-04-12T10:12:53.828Z,36.00
2023-04-12T10:13:53.780Z,40.00
2023-04-12T10:14:53.717Z,44.00
2023-04-12T10:15:53.665Z,44.00
2023-04-12T10:16:53.593Z,44.00
2023-04-12T10:17:53.634Z,44.00
2023-04-12T10:18:53.502Z,44.00
2023-04-12T10:19:53.422Z,48.00
2023-04-12T10:20:53.380Z,40.00
2023-04-12T10:21:53.331Z,40.00
2023-04-12T10:22:53.305Z,44.00
2023-04-12T10:23:53.189Z,48.00
2023-04-12T10:24:53.167Z,48.00
2023-04-12T10:25:55.262Z,44.00
2023-04-12T10:26:53.021Z,36.00
2023-04-12T10:27:53.004Z,40.00
2023-04-12T10:28:52.908Z,40.00
2023-04-12T10:29:52.882Z,36.00
2023-04-12T10:30:52.816Z,36.00
2023-04-12T10:31:52.814Z,36.00
2023-04-12T10:32:52.769Z,36.00
2023-04-12T10:33:52.638Z,36.00
2023-04-12T10:34:52.573Z,36.00
2023-04-12T10:35:52.545Z,36.00
2023-04-12T10:36:52.471Z,40.00
2023-04-12T10:37:52.443Z,40.00
2023-04-12T10:38:52.343Z,40.00
2023-04-12T10:39:52.287Z,44.00
2023-04-12T10:40:52.229Z,48.00
2023-04-12T10:41:52.193Z,48.00
2023-04-12T10:42:52.137Z,44.00
2023-04-12T10:43:52.110Z,40.00
2023-04-12T10:44:52.013Z,40.00
2023-04-12T10:45:51.954Z,40.00
2023-04-12T10:46:51.976Z,44.00
2023-04-12T10:47:51.850Z,48.00
2023-04-12T10:48:51.777Z,44.00
2023-04-12T10:49:51.724Z,44.00
2023-04-12T10:50:51.659Z,48.00
2023-04-12T10:51:51.617Z,44.00
2023-04-12T10:52:51.546Z,44.00
2023-04-12T10:53:51.500Z,52.00
2023-04-12T10:54:51.457Z,56.00
2023-04-12T10:55:51.420Z,56.00
2023-04-12T10:56:51.325Z,56.00
2023-04-12T10:57:51.297Z,60.00
2023-04-12T10:58:51.329Z,60.00
2023-04-12T10:59:51.214Z,64.00
2023-04-12T11:00:51.252Z,60.00
2023-04-12T11:01:51.168Z,64.00
2023-04-12T11:02:51.144Z,72.00
2023-04-12T11:03:51.070Z,68.00
2023-04-12T11:04:50.977Z,68.00
2023-04-12T11:05:50.820Z,68.00
2023-04-12T11:06:52.281Z,60.00
2023-04-12T11:07:50.717Z,64.00
2023-04-12T11:08:50.658Z,60.00
2023-04-12T11:09:50.580Z,60.00
2023-04-12T11:10:50.513Z,64.00
2023-04-12T11:11:50.495Z,68.00
2023-04-12T11:12:50.474Z,72.00
2023-04-12T11:13:50.368Z,68.00
2023-04-12T11:14:50.295Z,72.00
2023-04-12T11:15:50.238Z,80.00
2023-04-12T11:16:50.248Z,88.00
2023-04-12T11:17:50.226Z,84.00
2023-04-12T11:18:50.077Z,72.00
2023-04-12T11:19:50.058Z,64.00
2023-04-12T11:20:49.985Z,48.00
2023-04-12T11:21:49.910Z,56.00
2023-04-12T11:22:49.834Z,56.00
2023-04-12T11:23:49.802Z,68.00
2023-04-12T11:24:49.746Z,60.00
2023-04-12T11:25:49.693Z,64.00
2023-04-12T11:26:49.608Z,56.00
2023-04-12T11:27:49.554Z,52.00
2023-04-12T11:28:49.490Z,56.00
2023-04-12T11:29:49.437Z,60.00
2023-04-12T11:30:49.394Z,60.00
2023-04-12T11:31:49.400Z,52.00
2023-04-12T11:32:49.300Z,52.00
2023-04-12T11:33:49.209Z,48.00
2023-04-12T11:34:49.149Z,44.00
2023-04-12T11:35:49.093Z,48.00
2023-04-12T11:36:49.041Z,56.00
2023-04-12T11:37:48.996Z,48.00
2023-04-12T11:38:48.925Z,40.00
2023-04-12T11:39:48.873Z,44.00
2023-04-12T11:40:48.817Z,44.00
2023-04-12T11:41:48.772Z,48.00
2023-04-12T11:42:48.696Z,44.00
2023-04-12T11:43:48.660Z,36.00
2023-04-12T11:44:57.134Z,44.00
2023-04-12T11:45:48.562Z,48.00
2023-04-12T11:46:48.469Z,44.00
2023-04-12T11:47:48.433Z,40.00
2023-04-12T11:48:48.358Z,44.00
2023-04-12T11:49:48.315Z,40.00
2023-04-12T11:50:57.017Z,48.00
2023-04-12T11:51:49.678Z,40.00
2023-04-12T11:52:48.136Z,44.00
2023-04-12T11:53:48.072Z,44.00
2023-04-12T11:54:48.018Z,36.00
2023-04-12T11:55:47.968Z,48.00
2023-04-12T11:56:47.906Z,52.00
2023-04-12T11:57:47.861Z,40.00
2023-04-12T11:58:47.808Z,48.00
2023-04-12T11:59:47.737Z,52.00
2023-04-12T12:00:47.673Z,52.00
2023-04-12T12:01:47.630Z,48.00
2023-04-12T12:03:04.063Z,40.00
2023-04-12T12:03:47.657Z,40.00
2023-04-12T12:04:47.631Z,36.00
2023-04-12T12:05:47.524Z,40.00
2023-04-12T12:06:47.693Z,48.00
2023-04-12T12:07:47.280Z,48.00
2023-04-12T12:08:47.222Z,44.00
2023-04-12T12:09:47.167Z,60.00
2023-04-12T12:11:47.050Z,64.00
2023-04-12T12:12:47.034Z,68.00
2023-04-12T12:13:46.971Z,60.00
2023-04-12T12:14:46.881Z,64.00
2023-04-12T12:15:46.849Z,52.00
2023-04-12T12:16:46.769Z,48.00
2023-04-12T12:17:46.755Z,56.00
2023-04-12T12:18:46.652Z,76.00
2023-04-12T12:19:46.594Z,92.00
2023-04-12T12:20:46.545Z,84.00
2023-04-12T12:21:46.485Z,88.00
2023-04-12T12:22:46.433Z,76.00
2023-04-12T12:23:46.379Z,80.00
2023-04-12T12:24:46.319Z,88.00
2023-04-12T12:25:46.259Z,88.00
2023-04-12T12:26:46.219Z,88.00
2023-04-12T12:27:46.203Z,84.00
2023-04-12T12:28:46.129Z,100.00
2023-04-12T12:29:46.043Z,72.00
2023-04-12T12:30:45.987Z,64.00
2023-04-12T12:31:45.946Z,80.00
2023-04-12T12:32:45.892Z,84.00
2023-04-12T12:33:47.322Z,108.00
2023-04-12T12:34:45.745Z,104.00
2023-04-12T12:35:45.721Z,96.00
2023-04-12T12:36:45.637Z,104.00
2023-04-12T12:37:45.580Z,120.00
2023-04-12T12:38:45.523Z,112.00
2023-04-12T12:39:45.470Z,116.00
2023-04-12T12:40:45.414Z,76.00
2023-04-12T12:41:45.356Z,72.00
2023-04-12T12:42:45.300Z,64.00
2023-04-12T12:43:45.257Z,52.00
2023-04-12T12:44:45.180Z,48.00
2023-04-12T12:45:45.133Z,44.00
2023-04-12T12:46:55.185Z,36.00
2023-04-12T12:47:45.049Z,44.00
2023-04-12T12:48:44.967Z,40.00
2023-04-12T12:49:44.925Z,36.00
2023-04-12T12:50:44.850Z,40.00
2023-04-12T12:51:44.812Z,44.00
2023-04-12T12:52:44.730Z,36.00
2023-04-12T12:53:44.678Z,32.00
2023-04-12T12:54:44.635Z,32.00
2023-04-12T12:55:44.572Z,40.00
2023-04-12T12:56:44.508Z,48.00
2023-04-12T12:57:47.911Z,48.00
2023-04-12T12:58:44.387Z,44.00
2023-04-12T12:59:44.344Z,52.00
2023-04-12T13:00:44.282Z,64.00
2023-04-12T13:01:44.301Z,76.00
2023-04-12T13:02:44.426Z,64.00
2023-04-12T13:03:44.320Z,60.00
2023-04-12T13:04:44.141Z,68.00